createdAt,value
2023-06-12T00:00:02.956Z,74.5
2023-06-12T00:15:02.498Z,75.1
2023-06-12T00:30:02.820Z,76.1
2023-06-12T00:45:02.456Z,76.9
2023-06-12T01:00:02.704Z,77.4
2023-06-12T01:15:03.153Z,78.0
2023-06-12T01:30:02.595Z,78.8
2023-06-12T01:45:03.032Z,79.6
2023-06-12T02:00:02.523Z,80.2
2023-06-12T02:15:02.944Z,80.7
2023-06-12T02:30:02.546Z,82.2
2023-06-12T02:45:02.777Z,83.0
2023-06-12T03:00:03.236Z,83.3
2023-06-12T03:15:02.657Z,83.6
2023-06-12T03:30:03.075Z,83.8
2023-06-12T03:45:02.552Z,84.0
2023-06-12T04:00:02.954Z,84.7
2023-06-12T04:15:02.576Z,85.6
2023-06-12T04:45:03.314Z,84.3
2023-06-12T05:00:02.714Z,82.2
2023-06-12T05:15:03.146Z,78.0
2023-06-12T05:30:02.594Z,74.0
2023-06-12T05:45:03.087Z,71.7
2023-06-12T06:00:02.552Z,64.8
2023-06-12T06:15:02.908Z,51.6
2023-06-12T06:30:02.707Z,46.9
2023-06-12T06:45:02.792Z,44.3
2023-06-12T07:00:03.251Z,39.2
2023-06-12T07:15:02.688Z,39.9
2023-06-12T07:30:03.150Z,39.4
2023-06-12T07:45:02.619Z,36.0
2023-06-12T08:00:03.002Z,37.4
2023-06-12T08:15:02.584Z,35.9
2023-06-12T08:30:02.881Z,36.5
2023-06-12T08:45:19.377Z,34.8
2023-06-12T09:00:02.754Z,31.9
2023-06-12T09:15:03.183Z,32.5
2023-06-12T09:30:02.620Z,32.8
2023-06-12T09:45:03.069Z,32.6
2023-06-12T10:00:02.594Z,31.6
2023-06-12T10:15:03.077Z,30.3
2023-06-12T10:30:02.618Z,28.2
2023-06-12T10:45:02.834Z,29.8
2023-06-12T11:00:02.318Z,28.6
2023-06-12T11:15:02.696Z,31.6
2023-06-12T11:30:10.189Z,28.0
2023-06-12T11:45:02.654Z,31.2
2023-06-12T12:00:03.014Z,33.2
2023-06-12T12:15:02.629Z,30.0
2023-06-12T12:30:02.873Z,29.0
2023-06-12T12:45:02.303Z,31.0
2023-06-12T13:00:02.754Z,27.1
2023-06-12T13:15:03.209Z,31.3
2023-06-12T13:30:02.631Z,29.1
2023-06-12T13:45:03.070Z,27.2
2023-06-12T14:00:02.709Z,27.4
2023-06-12T14:15:02.942Z,29.5
2023-06-12T14:30:02.411Z,27.3
2023-06-12T14:45:02.802Z,25.0
2023-06-12T15:00:03.254Z,24.9
2023-06-12T15:15:02.680Z,25.8
2023-06-12T15:30:03.163Z,25.0
2023-06-12T15:45:02.641Z,25.2
2023-06-12T16:00:03.021Z,24.4
2023-06-12T16:15:02.646Z,23.9
2023-06-12T16:30:02.970Z,24.0
2023-06-12T16:45:02.373Z,27.3
2023-06-12T17:00:02.798Z,24.0
2023-06-12T17:15:03.219Z,25.4
2023-06-12T17:30:02.672Z,26.7
2023-06-12T17:45:03.102Z,27.7
2023-06-12T18:00:02.664Z,26.1
2023-06-12T18:15:02.998Z,29.7
2023-06-12T18:30:02.592Z,32.0
2023-06-12T18:45:02.853Z,33.9
2023-06-12T19:00:02.288Z,36.0
2023-06-12T19:15:02.748Z,37.1
2023-06-12T19:30:02.192Z,39.9
2023-06-12T19:45:02.706Z,43.0
2023-06-12T20:00:03.072Z,42.5
2023-06-12T20:15:02.693Z,45.5
2023-06-12T20:30:02.961Z,47.6
2023-06-12T20:45:02.404Z,46.7
2023-06-12T21:00:02.858Z,49.0
2023-06-12T21:15:02.279Z,51.2
2023-06-12T21:30:02.737Z,54.1
2023-06-12T21:45:03.176Z,56.6
2023-06-12T22:00:02.691Z,58.5
2023-06-12T22:15:03.053Z,61.6
2023-06-12T22:30:02.706Z,65.5
2023-06-12T22:45:02.923Z,66.8
2023-06-12T23:00:02.342Z,67.3
2023-06-12T23:15:02.824Z,67.6
2023-06-12T23:30:02.260Z,68.5
2023-06-12T23:45:02.724Z,70.2
